Time;durP1;ratioP1;P1;durP2;ratioP2;P2;SDS_P1;SDS_P2;PMS_P1;PMS_P2;Temp;Humidity;BMP_temperature;BMP_pressure;BME280_temperature;BME280_humidity;BME280_pressure;Samples;Min_cycle;Max_cycle;Signal;HPM_P1;HPM_P2
2023/02/18 00:01:33;;;;;;;21.15;12.27;;;;;;;14.03;56.46;100125.41;5093903;28;20020;-47
2023/02/18 00:04:01;;;;;;;24.90;11.65;;;;;;;13.92;57.24;100132.81;5093875;28;20019;-47
2023/02/18 00:06:30;;;;;;;19.58;11.63;;;;;;;13.98;57.07;100118.88;5085372;28;20407;-47
2023/02/18 00:09:00;;;;;;;18.85;12.10;;;;;;;14.07;57.12;100124.03;5093742;28;20091;-47
2023/02/18 00:11:41;;;;;;;19.60;11.60;;;;;;;14.20;56.65;100116.22;5093709;28;20117;-48
2023/02/18 00:14:19;;;;;;;;;;;;;;;14.15;56.50;100114.16;5094064;28;20490;-48
2023/02/18 00:16:46;;;;;;;20.13;11.65;;;;;;;14.23;56.50;100112.41;5093541;28;20053;-47
2023/02/18 00:19:15;;;;;;;18.45;11.48;;;;;;;14.30;56.07;100121.19;5093561;28;20039;-47
2023/02/18 00:21:43;;;;;;;21.30;12.68;;;;;;;14.38;56.28;100115.78;5087639;28;20024;-47
2023/02/18 00:24:16;;;;;;;20.65;12.93;;;;;;;14.49;55.66;100119.75;5092244;28;20126;-47
2023/02/18 00:27:00;;;;;;;17.80;11.65;;;;;;;14.58;55.74;100103.59;5085365;28;20040;-47
2023/02/18 00:29:44;;;;;;;18.30;11.20;;;;;;;14.71;55.27;100110.00;5068694;28;20024;-47
2023/02/18 00:32:18;;;;;;;19.17;11.13;;;;;;;14.77;55.21;100110.03;5091934;28;20509;-48
2023/02/18 00:34:45;;;;;;;19.83;11.70;;;;;;;14.80;55.04;100105.38;5093321;28;20150;-47
2023/02/18 00:37:41;;;;;;;18.65;12.52;;;;;;;14.88;54.57;100103.41;5084995;28;20494;-48
2023/02/18 00:40:08;;;;;;;19.60;12.95;;;;;;;14.87;54.66;100099.13;5090894;28;20031;-47
2023/02/18 00:42:38;;;;;;;21.35;13.18;;;;;;;14.88;54.84;100103.41;5093127;28;20024;-48
2023/02/18 00:45:11;;;;;;;20.02;13.10;;;;;;;14.91;54.69;100108.31;5093099;28;20055;-48
2023/02/18 00:50:28;;;;;;;19.02;12.32;;;;;;;14.83;53.98;100107.63;5091452;28;20090;-47
2023/02/18 00:53:05;;;;;;;18.42;11.98;;;;;;;14.72;54.25;100107.16;5088850;28;20477;-48
2023/02/18 00:56:01;;;;;;;24.05;13.13;;;;;;;14.69;54.59;100104.91;5085740;28;20028;-47
2023/02/18 00:58:27;;;;;;;17.73;11.63;;;;;;;14.73;54.27;100098.22;5091546;28;20028;-47
2023/02/18 01:00:57;;;;;;;14.23;10.52;;;;;;;14.77;54.79;100096.84;5092790;28;20397;-48
2023/02/18 01:03:29;;;;;;;15.38;10.52;;;;;;;14.78;54.71;100103.72;5092712;28;20508;-48
2023/02/18 01:06:05;;;;;;;21.60;11.80;;;;;;;14.87;54.86;100095.66;5088814;28;20119;-47
2023/02/18 01:08:44;;;;;;;17.50;10.02;;;;;;;14.89;54.70;100091.00;5085349;28;20093;-48
2023/02/18 01:11:17;;;;;;;14.85;10.43;;;;;;;14.87;54.76;100091.22;5092535;28;20051;-47
2023/02/18 01:13:58;;;;;;;16.70;9.63;;;;;;;14.86;55.11;100094.03;5092465;28;20501;-48
2023/02/18 01:16:40;;;;;;;13.88;9.27;;;;;;;14.88;55.43;100092.81;5092392;28;20020;-47
2023/02/18 01:19:19;;;;;;;12.23;9.60;;;;;;;14.93;55.20;100087.78;5092366;28;20093;-48
2023/02/18 01:21:53;;;;;;;14.23;9.85;;;;;;;14.97;55.32;100090.88;5087148;28;20119;-47
2023/02/18 01:24:37;;;;;;;18.42;9.18;;;;;;;14.94;56.18;100089.41;5092310;28;20031;-47
2023/02/18 01:27:22;;;;;;;17.27;10.18;;;;;;;14.92;56.50;100088.78;5092491;28;20055;-47
2023/02/18 01:29:55;;;;;;;12.95;9.80;;;;;;;14.96;56.44;100081.28;5087550;28;20379;-47
2023/02/18 01:32:31;;;;;;;14.45;8.93;;;;;;;14.95;56.35;100075.19;5092190;28;20028;-48
2023/02/18 01:35:27;;;;;;;11.73;8.43;;;;;;;14.99;56.46;100075.63;5088682;28;20078;-47
2023/02/18 01:37:50;;;;;;;14.65;9.05;;;;;;;15.07;56.56;100071.97;5089707;28;20040;-47
2023/02/18 01:40:27;;;;;;;15.27;9.65;;;;;;;15.15;56.72;100072.66;5092128;28;20024;-48
2023/02/18 01:43:12;;;;;;;10.57;7.65;;;;;;;15.30;56.46;100069.06;5087922;28;20405;-47
2023/02/18 01:46:06;;;;;;;9.80;6.65;;;;;;;15.51;56.57;100068.94;5085772;28;20032;-48
2023/02/18 01:49:11;;;;;;;11.98;7.35;;;;;;;15.69;55.91;100068.38;5107634;28;20043;-48
2023/02/18 01:52:12;;;;;;;9.15;6.65;;;;;;;15.61;56.04;100068.53;5091964;28;20043;-47
2023/02/18 01:55:12;;;;;;;11.73;6.55;;;;;;;15.66;56.29;100060.03;5085648;28;20409;-48
2023/02/18 01:57:56;;;;;;;10.25;6.65;;;;;;;15.76;56.05;100056.00;5091835;28;20084;-49
2023/02/18 02:00:23;;;;;;;8.35;6.47;;;;;;;15.81;55.80;100052.75;5083437;28;20024;-47
2023/02/18 02:02:52;;;;;;;13.68;7.65;;;;;;;15.82;55.64;100057.03;5090614;28;20028;-47
2023/02/18 02:05:21;;;;;;;13.32;9.60;;;;;;;15.80;55.48;100052.97;5082733;28;20024;-47
2023/02/18 02:07:51;;;;;;;12.55;7.82;;;;;;;15.72;55.75;100056.59;5107536;28;20051;-47
2023/02/18 02:10:19;;;;;;;7.95;6.30;;;;;;;15.70;56.09;100051.50;5091812;28;20522;-47
2023/02/18 02:12:57;;;;;;;9.35;6.32;;;;;;;15.75;56.07;100050.91;5086488;28;20031;-47
2023/02/18 02:15:46;;;;;;;9.70;6.32;;;;;;;15.73;55.96;100051.09;5091796;28;20024;-47
2023/02/18 02:18:48;;;;;;;;;;;;;;;;;;;;;
2023/02/18 02:25:38;;;;;;;13.05;8.40;;;;;;;15.11;57.22;100038.84;5091746;28;20046;-48
2023/02/18 02:28:34;;;;;;;12.90;7.80;;;;;;;15.16;56.75;100036.44;5106073;28;20485;-47
2023/02/18 02:31:43;;;;;;;15.65;8.27;;;;;;;15.17;57.19;100046.00;5095249;28;20030;-48
2023/02/18 02:37:54;;;;;;;9.70;7.75;;;;;;;15.18;56.95;100035.22;5095615;28;20035;-48
2023/02/18 02:41:17;;;;;;;12.75;8.15;;;;;;;15.24;57.15;100036.28;5095455;28;20553;-47
2023/02/18 02:44:55;;;;;;;16.00;9.82;;;;;;;15.26;56.28;100033.44;5095412;28;20374;-48
2023/02/18 02:47:40;;;;;;;16.58;9.57;;;;;;;15.11;56.85;100039.69;5095321;28;20059;-48
2023/02/18 02:50:39;;;;;;;20.13;10.98;;;;;;;15.14;56.78;100035.81;5087762;28;20048;-47
2023/02/18 02:53:35;;;;;;;16.88;9.80;;;;;;;15.18;56.29;100035.22;5095606;28;20028;-47
2023/02/18 02:56:06;;;;;;;21.50;9.45;;;;;;;15.26;56.57;100044.03;5075414;28;20040;-47
2023/02/18 02:58:33;;;;;;;29.40;12.35;;;;;;;15.30;56.03;100040.78;5073478;28;20035;-47
2023/02/18 03:01:21;;;;;;;13.52;8.77;;;;;;;15.36;56.24;100039.97;5075033;28;20028;-47
2023/02/18 03:04:21;;;;;;;19.35;10.23;;;;;;;15.25;55.88;100035.28;5095127;28;20028;-47
2023/02/18 03:07:38;;;;;;;16.73;9.50;;;;;;;15.05;56.34;100043.13;5095044;28;20382;-47
2023/02/18 03:10:42;;;;;;;19.80;9.90;;;;;;;15.04;56.16;100043.31;5092462;28;20541;-47
2023/02/18 03:13:55;;;;;;;17.50;10.32;;;;;;;14.97;56.14;100038.00;5094742;28;20118;-48
2023/02/18 03:17:12;;;;;;;19.00;10.23;;;;;;;14.73;56.98;100029.53;5094759;28;20027;-47
2023/02/18 03:20:26;;;;;;;14.20;9.27;;;;;;;14.86;56.89;100038.53;5094724;28;20032;-48
2023/02/18 03:23:16;;;;;;;12.60;7.75;;;;;;;14.94;57.14;100041.81;5094741;28;20040;-47
2023/02/18 03:25:56;;;;;;;22.27;11.45;;;;;;;14.91;56.69;100039.59;5085361;28;20421;-48
2023/02/18 03:28:38;;;;;;;27.92;11.75;;;;;;;14.86;56.91;100041.97;5073032;28;20036;-48
2023/02/18 03:31:47;;;;;;;16.90;10.73;;;;;;;14.85;57.15;100039.53;5075117;28;20025;-48
2023/02/18 03:34:48;;;;;;;13.40;10.27;;;;;;;14.98;56.89;100032.50;5072887;28;20577;-47
2023/02/18 03:37:31;;;;;;;16.42;10.05;;;;;;;15.11;56.80;100025.63;5072771;28;20028;-48
2023/02/18 03:40:17;;;;;;;20.63;10.68;;;;;;;15.06;56.93;100022.78;5073878;28;20064;-47
2023/02/18 03:42:55;;;;;;;23.50;12.77;;;;;;;15.00;56.57;100028.84;5072010;28;20056;-48
2023/02/18 03:45:33;;;;;;;22.58;12.32;;;;;;;14.79;57.01;100022.66;5094173;28;20028;-48
2023/02/18 03:47:59;;;;;;;16.13;11.23;;;;;;;14.78;56.84;100023.63;5094240;28;20096;-47
2023/02/18 03:50:40;;;;;;;20.58;17.58;;;;;;;14.75;56.75;100021.41;5075565;28;20040;-48
2023/02/18 03:53:07;;;;;;;22.55;16.25;;;;;;;14.70;56.66;100013.22;5075946;28;20044;-47
2023/02/18 03:55:52;;;;;;;19.75;13.15;;;;;;;14.57;57.30;100008.69;5059236;28;20393;-48
2023/02/18 03:58:38;;;;;;;14.23;10.45;;;;;;;14.49;57.18;100014.91;5094001;28;20024;-47
2023/02/18 04:01:22;;;;;;;13.90;10.85;;;;;;;14.46;57.62;100017.91;5075863;28;20122;-47
2023/02/18 04:04:03;;;;;;;13.82;9.20;;;;;;;14.37;58.00;100008.53;5093886;28;20043;-48
2023/02/18 04:06:49;;;;;;;20.77;11.23;;;;;;;14.39;58.29;100011.78;5094128;28;20397;-47
2023/02/18 04:09:29;;;;;;;20.80;10.98;;;;;;;14.53;58.65;100013.50;5078680;28;20494;-48
2023/02/18 04:11:55;;;;;;;20.60;11.75;;;;;;;14.73;57.89;100010.22;5075560;28;20016;-47
2023/02/18 04:14:23;;;;;;;16.13;12.30;;;;;;;14.68;57.53;100009.97;5075659;28;20024;-47
2023/02/18 04:16:50;;;;;;;18.80;10.18;;;;;;;14.47;58.62;100009.00;5093580;28;20028;-47
2023/02/18 04:19:17;;;;;;;15.38;10.07;;;;;;;14.53;59.14;99997.66;5093644;28;20024;-47
2023/02/18 04:21:44;;;;;;;17.10;12.05;;;;;;;14.53;58.46;100008.22;5093529;28;20020;-47
2023/02/18 04:24:11;;;;;;;16.73;12.00;;;;;;;14.39;58.43;100009.97;5075312;28;20024;-47
2023/02/18 04:26:39;;;;;;;17.45;11.57;;;;;;;14.40;58.76;100010.75;5075292;28;20081;-47
2023/02/18 04:29:06;;;;;;;19.63;11.43;;;;;;;14.42;59.28;100006.09;5075276;28;20444;-47
2023/02/18 04:31:34;;;;;;;17.73;11.25;;;;;;;14.51;59.28;100010.25;5075133;28;20114;-47
2023/02/18 04:34:02;;;;;;;17.55;10.88;;;;;;;14.42;59.60;100003.47;5075207;28;20028;-47
2023/02/18 04:36:29;;;;;;;19.02;11.40;;;;;;;14.19;59.93;100006.34;5075052;28;20024;-47
2023/02/18 04:38:56;;;;;;;17.38;10.63;;;;;;;14.04;60.09;100006.41;5074992;28;20024;-47
2023/02/18 04:41:23;;;;;;;24.33;11.93;;;;;;;14.00;60.26;100013.09;5093131;28;20036;-47
2023/02/18 04:43:50;;;;;;;22.52;11.95;;;;;;;14.05;60.56;100008.06;5093430;28;20393;-47
2023/02/18 04:46:17;;;;;;;16.00;11.15;;;;;;;14.10;60.61;100004.84;5093109;28;20020;-47
2023/02/18 04:48:43;;;;;;;19.95;10.50;;;;;;;14.14;60.44;100004.25;5074803;28;20028;-47
2023/02/18 04:51:12;;;;;;;14.40;9.10;;;;;;;14.19;60.00;100001.88;5104160;28;20509;-47
2023/02/18 04:53:39;;;;;;;18.38;10.60;;;;;;;14.25;60.13;99996.84;5094598;28;20023;-47
2023/02/18 04:56:06;;;;;;;18.98;11.75;;;;;;;14.30;59.80;100003.16;5094972;28;20511;-47
2023/02/18 04:58:36;;;;;;;18.45;10.43;;;;;;;14.32;59.32;100003.00;5094854;28;20023;-47
2023/02/18 05:01:04;;;;;;;16.75;10.35;;;;;;;14.32;59.50;100003.78;5094826;28;20038;-47
2023/02/18 05:03:32;;;;;;;15.23;10.80;;;;;;;14.31;59.45;99999.53;5113145;28;20108;-48
2023/02/18 05:06:03;;;;;;;19.60;12.15;;;;;;;14.11;59.58;100001.22;5113012;28;20031;-47
2023/02/18 05:08:43;;;;;;;49.30;21.85;;;;;;;13.79;61.05;100001.53;5113036;28;20033;-48
2023/02/18 05:11:19;;;;;;;19.17;12.02;;;;;;;13.60;61.76;100002.16;5094684;28;20504;-47
2023/02/18 05:13:51;;;;;;;16.75;10.65;;;;;;;13.45;61.78;99996.13;5112960;28;20028;-46
2023/02/18 05:16:17;;;;;;;19.13;11.23;;;;;;;13.29;62.06;100000.63;5112889;28;20043;-47
2023/02/18 05:18:51;;;;;;;18.05;11.05;;;;;;;13.14;63.50;99994.53;5094468;28;20075;-48
2023/02/18 05:21:17;;;;;;;15.48;10.85;;;;;;;13.04;63.44;99999.25;5095068;28;20027;-47
2023/02/18 05:23:51;;;;;;;19.10;13.80;;;;;;;13.03;64.04;100006.34;5094456;28;20527;-47
2023/02/18 05:26:20;;;;;;;17.13;10.25;;;;;;;13.03;64.26;100008.19;5112702;28;20047;-48
2023/02/18 05:28:56;;;;;;;17.30;11.02;;;;;;;13.07;64.26;100001.53;5112972;28;20097;-48
2023/02/18 05:31:23;;;;;;;18.70;10.80;;;;;;;13.19;64.28;100000.06;5094324;28;20138;-47
2023/02/18 05:33:51;;;;;;;23.73;10.75;;;;;;;13.32;64.05;100000.25;5077616;28;20042;-47
2023/02/18 05:36:17;;;;;;;17.13;10.25;;;;;;;13.50;63.49;99996.38;5094405;28;20026;-47
2023/02/18 05:38:47;;;;;;;15.82;10.07;;;;;;;13.48;63.27;100001.84;5094174;28;20020;-47
2023/02/18 05:41:35;;;;;;;17.77;11.45;;;;;;;13.43;63.51;99998.13;5112492;28;20060;-47
2023/02/18 05:47:12;;;;;;;18.15;10.85;;;;;;;13.52;63.08;99999.63;5112555;28;20504;-48
2023/02/18 05:49:42;;;;;;;20.48;10.25;;;;;;;13.52;62.76;99999.63;5093184;28;20087;-48
2023/02/18 05:52:12;;;;;;;16.65;9.68;;;;;;;13.47;63.19;100004.66;5094087;28;20127;-48
2023/02/18 05:54:43;;;;;;;17.33;10.15;;;;;;;13.50;63.43;100004.28;5111033;28;20110;-48
2023/02/18 05:57:13;;;;;;;15.65;9.70;;;;;;;13.53;63.17;100004.72;5112096;28;20611;-47
2023/02/18 05:59:41;;;;;;;15.73;9.82;;;;;;;13.52;63.16;100002.28;5094176;28;20067;-47
2023/02/18 06:02:08;;;;;;;19.83;9.85;;;;;;;13.65;63.19;99991.88;5110917;28;20031;-47
2023/02/18 06:04:35;;;;;;;22.05;11.18;;;;;;;13.85;62.29;100001.81;5111366;28;20509;-47
2023/02/18 06:07:20;;;;;;;12.93;9.43;;;;;;;13.98;62.53;100000.09;5093847;28;20060;-47
2023/02/18 06:09:46;;;;;;;14.52;9.38;;;;;;;13.98;61.88;100004.53;5093923;28;20114;-47
2023/02/18 06:12:12;;;;;;;18.00;10.25;;;;;;;13.92;61.75;100008.78;5093804;28;20417;-47
2023/02/18 06:14:54;;;;;;;18.15;9.30;;;;;;;13.95;61.88;99999.66;5093804;28;20028;-48
2023/02/18 06:17:34;;;;;;;19.48;10.25;;;;;;;14.13;61.43;100002.66;5111948;28;20020;-48
2023/02/18 06:20:07;;;;;;;17.80;9.75;;;;;;;14.21;61.00;99998.25;5093802;28;20024;-47
2023/02/18 06:22:55;;;;;;;17.42;10.85;;;;;;;14.18;60.86;99999.44;5112087;28;20015;-47
2023/02/18 06:25:25;;;;;;;17.13;11.20;;;;;;;14.24;60.92;100001.31;5094117;28;20035;-48
2023/02/18 06:27:52;;;;;;;18.08;11.23;;;;;;;14.26;60.41;100001.94;5093764;28;20401;-47
2023/02/18 06:30:34;;;;;;;21.13;12.07;;;;;;;14.22;60.52;99999.88;5093746;28;20032;-48
2023/02/18 06:33:05;;;;;;;16.05;11.18;;;;;;;14.13;60.30;99997.38;5093839;28;20028;-47
2023/02/18 06:35:41;;;;;;;14.95;11.35;;;;;;;14.09;60.43;99996.13;5093626;28;20077;-47
2023/02/18 06:38:10;;;;;;;14.95;11.88;;;;;;;14.01;60.08;99995.44;5112057;28;20028;-48
2023/02/18 06:40:40;;;;;;;14.07;11.60;;;;;;;13.93;60.32;99996.38;5111790;28;20059;-47
2023/02/18 06:43:06;;;;;;;17.77;11.30;;;;;;;13.96;60.27;99998.63;5112154;28;20027;-47
2023/02/18 06:45:39;;;;;;;14.70;10.82;;;;;;;14.03;60.08;100004.00;5111750;28;20587;-47
2023/02/18 06:48:06;;;;;;;16.88;11.55;;;;;;;14.06;60.22;100004.41;5111866;28;20041;-47
2023/02/18 06:50:45;;;;;;;36.10;17.80;;;;;;;14.04;60.59;100011.69;5089302;28;20048;-48
2023/02/18 06:53:17;;;;;;;23.83;13.30;;;;;;;13.98;60.55;100012.47;5090209;28;20040;-46
2023/02/18 06:55:52;;;;;;;17.40;11.90;;;;;;;14.03;60.62;100011.91;5091374;28;20020;-47
2023/02/18 06:58:19;;;;;;;19.05;11.23;;;;;;;14.11;60.45;100012.59;5091250;28;20095;-47
2023/02/18 07:00:45;;;;;;;14.05;11.10;;;;;;;14.23;60.74;100009.44;5091319;28;20024;-47
2023/02/18 07:03:13;;;;;;;18.15;10.48;;;;;;;14.27;60.22;100011.50;5089771;28;20036;-47
2023/02/18 07:05:42;;;;;;;15.73;11.10;;;;;;;14.25;60.25;100007.41;5091562;28;20020;-47
2023/02/18 07:08:10;;;;;;;14.43;10.98;;;;;;;14.22;60.11;100010.44;5091204;28;20032;-47
2023/02/18 07:10:38;;;;;;;17.20;11.43;;;;;;;14.18;60.08;100015.28;5091475;28;20439;-47
2023/02/18 07:13:06;;;;;;;15.50;10.25;;;;;;;14.19;60.18;100017.72;5088507;28;20026;-47
2023/02/18 07:15:33;;;;;;;12.68;9.80;;;;;;;14.27;60.03;100014.13;5092249;28;20036;-47
2023/02/18 07:18:03;;;;;;;12.73;10.73;;;;;;;14.34;60.11;100019.47;5094754;28;20071;-47
2023/02/18 07:20:30;;;;;;;18.80;11.27;;;;;;;14.43;59.63;100013.03;5087252;28;20428;-47
2023/02/18 07:22:57;;;;;;;17.00;11.27;;;;;;;14.51;59.35;100012.88;5094759;28;20020;-47
2023/02/18 07:25:41;;;;;;;14.98;11.13;;;;;;;14.65;59.23;100020.91;5094595;28;20020;-48
2023/02/18 07:28:08;;;;;;;15.10;9.85;;;;;;;14.84;58.83;100014.94;5092457;28;20123;-47
2023/02/18 07:30:46;;;;;;;14.35;11.55;;;;;;;15.05;57.84;100015.84;5087706;28;20027;-48
2023/02/18 07:33:22;;;;;;;16.10;10.57;;;;;;;15.12;57.39;100022.00;5094606;28;20114;-47
2023/02/18 07:36:10;;;;;;;17.80;11.32;;;;;;;15.14;57.52;100015.47;5094414;28;20020;-47
2023/02/18 07:38:36;;;;;;;15.82;10.48;;;;;;;15.22;57.52;100017.16;5094383;28;20028;-47
2023/02/18 07:41:03;;;;;;;21.42;11.60;;;;;;;15.30;57.04;100018.81;5074484;28;20028;-47
2023/02/18 07:43:30;;;;;;;15.43;10.88;;;;;;;15.37;56.71;100023.09;5086818;28;20035;-47
2023/02/18 07:45:57;;;;;;;16.00;10.63;;;;;;;15.32;56.47;100022.06;5092965;28;20108;-47
2023/02/18 07:48:24;;;;;;;16.45;9.27;;;;;;;15.16;56.65;100016.09;5094224;28;20115;-47
2023/02/18 07:50:50;;;;;;;14.48;10.70;;;;;;;15.10;56.64;100021.38;5089326;28;20048;-47
2023/02/18 07:53:18;;;;;;;15.65;9.45;;;;;;;14.95;56.70;100019.69;5084874;28;20454;-47
2023/02/18 07:55:53;;;;;;;16.00;10.75;;;;;;;14.91;57.25;100021.09;5094102;28;20559;-47
2023/02/18 07:58:22;;;;;;;15.10;9.13;;;;;;;14.93;58.01;100019.06;5094036;28;20051;-47
2023/02/18 08:01:23;;;;;;;16.67;9.73;;;;;;;15.17;57.83;100025.69;5089067;28;20115;-47
2023/02/18 08:03:59;;;;;;;20.10;10.73;;;;;;;15.37;57.34;100025.75;5094038;28;20032;-48
2023/02/18 08:06:57;;;;;;;12.10;10.23;;;;;;;15.54;56.88;100023.56;5093825;28;20024;-47
2023/02/18 08:09:32;;;;;;;17.55;9.57;;;;;;;15.66;56.14;100028.28;5093829;28;20032;-48
2023/02/18 08:12:18;;;;;;;14.32;9.43;;;;;;;15.64;56.25;100031.13;5090365;28;20028;-47
2023/02/18 08:14:47;;;;;;;14.75;10.00;;;;;;;15.66;56.37;100029.09;5088334;28;20063;-48
2023/02/18 08:17:25;;;;;;;16.42;9.75;;;;;;;15.75;56.14;100019.97;5093606;28;20032;-47
2023/02/18 08:20:08;;;;;;;20.17;11.27;;;;;;;15.90;55.97;100025.09;5089218;28;20024;-48
2023/02/18 08:22:41;;;;;;;15.15;9.40;;;;;;;16.11;55.65;100028.56;5093646;28;20031;-47
2023/02/18 08:25:19;;;;;;;14.00;10.40;;;;;;;16.24;55.19;100019.78;5093524;28;20117;-48
2023/02/18 08:27:53;;;;;;;17.33;10.88;;;;;;;16.17;55.34;100011.84;5092712;28;20064;-47
2023/02/18 08:30:20;;;;;;;19.25;10.50;;;;;;;16.12;55.34;100007.16;5093426;28;20502;-47
2023/02/18 08:32:47;;;;;;;12.90;9.70;;;;;;;16.15;55.67;100011.25;5093348;28;20107;-47
2023/02/18 08:35:14;;;;;;;13.70;9.82;;;;;;;16.10;55.43;100019.81;5083686;28;20173;-47
2023/02/18 08:37:44;;;;;;;16.63;9.13;;;;;;;16.02;55.87;100017.34;5093279;28;20103;-47
2023/02/18 08:40:13;;;;;;;17.27;10.07;;;;;;;16.06;55.47;100029.16;5093254;28;20020;-47
2023/02/18 08:42:40;;;;;;;14.00;9.02;;;;;;;16.15;54.99;100027.13;5093264;28;20024;-47
2023/02/18 08:45:07;;;;;;;16.38;10.65;;;;;;;16.10;54.92;100024.28;5093128;28;20054;-47
2023/02/18 08:47:38;;;;;;;21.13;11.30;;;;;;;16.09;55.15;100028.75;5086353;28;20035;-48
2023/02/18 08:50:05;;;;;;;21.55;13.18;;;;;;;16.13;54.81;100035.28;5091901;28;20071;-47
2023/02/18 08:52:32;;;;;;;18.52;12.90;;;;;;;16.12;54.59;100036.31;5071486;28;20024;-47
2023/02/18 08:55:03;;;;;;;15.77;12.25;;;;;;;16.17;54.66;100039.13;5090880;28;20030;-47
2023/02/18 08:57:30;;;;;;;29.58;21.95;;;;;;;16.25;54.23;100032.84;5092904;28;20020;-47
2023/02/18 08:59:58;;;;;;;22.55;13.85;;;;;;;16.41;53.91;100030.78;5092879;28;20030;-47
2023/02/18 09:02:25;;;;;;;20.88;13.50;;;;;;;16.62;53.88;100041.19;5071421;28;20070;-47
2023/02/18 09:04:52;;;;;;;19.23;12.40;;;;;;;16.75;52.94;100042.97;5089574;28;20028;-47
2023/02/18 09:07:23;;;;;;;20.05;13.63;;;;;;;16.60;52.97;100045.03;5092759;28;20519;-48
2023/02/18 09:09:49;;;;;;;18.98;13.18;;;;;;;16.63;52.97;100044.63;5071247;28;20482;-47
2023/02/18 09:12:16;;;;;;;20.05;12.75;;;;;;;16.78;52.58;100045.19;5092691;28;20032;-47
2023/02/18 09:14:42;;;;;;;19.08;12.73;;;;;;;16.75;52.39;100042.97;5092683;28;20077;-47
2023/02/18 09:17:09;;;;;;;18.17;15.13;;;;;;;16.62;52.53;100043.00;5092512;28;20024;-47
2023/02/18 09:19:37;;;;;;;16.75;12.43;;;;;;;16.62;52.66;100037.69;5070966;28;20025;-47
2023/02/18 09:22:04;;;;;;;22.05;12.40;;;;;;;16.66;52.52;100033.59;5090875;28;20028;-47
2023/02/18 09:24:43;;;;;;;24.60;12.57;;;;;;;16.65;52.64;100037.28;5092356;28;20533;-47
2023/02/18 09:27:10;;;;;;;19.67;13.65;;;;;;;16.67;52.68;100036.06;5073773;28;20410;-47
2023/02/18 09:29:41;;;;;;;20.48;12.75;;;;;;;16.64;52.61;100033.00;5092380;28;20077;-47
2023/02/18 09:32:08;;;;;;;22.30;13.35;;;;;;;16.88;52.30;100032.38;5073315;28;20112;-47
2023/02/18 09:34:36;;;;;;;20.25;12.32;;;;;;;16.99;51.95;100033.56;5070716;28;20063;-47
2023/02/18 09:37:04;;;;;;;23.30;13.60;;;;;;;16.95;52.37;100027.84;5090550;28;20476;-47
2023/02/18 09:39:31;;;;;;;24.33;12.82;;;;;;;16.99;52.51;100025.59;5092137;28;20077;-47
2023/02/18 09:42:01;;;;;;;17.58;12.30;;;;;;;17.09;51.71;100028.63;5092123;28;20558;-47
2023/02/18 09:44:40;;;;;;;16.80;12.75;;;;;;;17.12;52.01;100028.22;5092150;28;20020;-47
2023/02/18 09:47:28;;;;;;;15.65;11.60;;;;;;;17.19;51.69;100028.19;5092005;28;20027;-47
2023/02/18 09:50:04;;;;;;;14.75;11.95;;;;;;;17.22;51.66;100027.75;5092629;28;20035;-47
2023/02/18 09:52:36;;;;;;;16.05;12.30;;;;;;;17.31;51.85;100023.84;5094114;28;20036;-47
2023/02/18 09:55:23;;;;;;;17.15;12.13;;;;;;;17.64;51.42;100024.69;5112274;28;20501;-47
2023/02/18 09:58:05;;;;;;;;;;;;;;;;;;;;;
2023/02/18 10:01:09;;;;;;;18.70;12.52;;;;;;;17.95;51.05;100027.38;5112096;28;20088;-48
2023/02/18 10:03:37;;;;;;;23.38;13.45;;;;;;;18.03;51.14;100026.31;5112328;28;20027;-48
2023/02/18 10:06:32;;;;;;;13.80;11.85;;;;;;;18.04;51.31;100030.56;5112301;28;20103;-48
2023/02/18 10:09:50;;;;;;;13.63;11.30;;;;;;;18.12;51.10;100034.81;5093911;28;20489;-45
2023/02/18 10:12:25;;;;;;;20.05;13.15;;;;;;;18.24;50.80;100037.59;5112185;28;20015;-46
2023/02/18 10:15:42;;;;;;;15.95;11.15;;;;;;;18.22;50.96;100037.00;5109041;28;20058;-46
2023/02/18 10:18:48;;;;;;;16.25;11.52;;;;;;;18.48;50.79;100022.66;5112017;28;20055;-45
2023/02/18 10:21:41;;;;;;;14.20;11.40;;;;;;;18.81;50.02;100030.31;5108891;28;20035;-45
2023/02/18 10:24:43;;;;;;;24.17;11.57;;;;;;;19.10;49.41;100022.63;5093809;28;20404;-46
2023/02/18 10:27:45;;;;;;;15.43;11.52;;;;;;;19.40;48.58;100019.16;5093692;28;20027;-46
2023/02/18 10:30:46;;;;;;;22.55;13.38;;;;;;;19.56;48.09;100018.56;5110707;28;20031;-45
2023/02/18 10:34:01;;;;;;;20.88;12.95;;;;;;;19.97;47.93;100019.63;5111976;28;20032;-45
2023/02/18 10:37:25;;;;;;;19.73;11.48;;;;;;;20.12;47.73;100020.00;5111866;28;20020;-46
2023/02/18 10:40:45;;;;;;;20.08;12.02;;;;;;;20.20;47.19;100028.69;5091046;28;20036;-45
2023/02/18 10:44:01;;;;;;;15.27;10.85;;;;;;;20.24;46.92;100027.16;5093481;28;20027;-45
2023/02/18 10:47:01;;;;;;;14.20;10.93;;;;;;;20.13;47.32;100018.94;5111882;28;20027;-45
2023/02/18 10:49:41;;;;;;;15.35;11.00;;;;;;;20.12;46.91;100022.66;5111799;28;20032;-45
2023/02/18 10:52:16;;;;;;;21.13;11.55;;;;;;;20.11;47.10;100017.56;5115408;28;20048;-45
2023/02/18 10:54:50;;;;;;;;;;;;;;;20.40;47.43;100018.47;5116246;28;20081;-45
2023/02/18 10:57:22;;;;;;;12.50;10.18;;;;;;;20.57;46.28;100015.94;5115601;28;19934;-45
2023/02/18 11:00:12;;;;;;;13.80;9.27;;;;;;;20.40;46.71;100026.47;5115627;28;20030;-45
2023/02/18 11:02:40;;;;;;;16.60;10.85;;;;;;;20.39;46.76;100027.53;5115648;28;20446;-45
2023/02/18 11:05:34;;;;;;;19.70;10.32;;;;;;;20.35;47.00;100024.50;5115447;28;20069;-45
2023/02/18 11:08:14;;;;;;;14.07;9.95;;;;;;;20.54;46.63;100022.56;5088770;28;20118;-45
2023/02/18 11:10:44;;;;;;;19.75;8.85;;;;;;;20.70;46.21;100021.03;5115446;28;20428;-45
2023/02/18 11:13:14;;;;;;;12.13;9.10;;;;;;;20.81;46.03;100023.94;5096979;28;20034;-45
2023/02/18 11:16:03;;;;;;;12.32;10.55;;;;;;;20.83;45.88;100014.66;5115271;28;20059;-45
2023/02/18 11:18:41;;;;;;;15.32;10.27;;;;;;;20.78;45.78;100016.41;5096850;28;20066;-45
2023/02/18 11:21:36;;;;;;;12.95;8.95;;;;;;;20.76;45.30;100011.28;5115259;28;20047;-45
2023/02/18 11:24:16;;;;;;;12.57;8.82;;;;;;;20.64;45.62;100003.31;5098832;28;20038;-45
2023/02/18 11:26:43;;;;;;;10.52;7.95;;;;;;;20.46;45.85;100006.88;5115153;28;20036;-45
2023/02/18 11:29:21;;;;;;;15.18;9.93;;;;;;;20.41;46.64;100008.66;5114981;28;20074;-45
2023/02/18 11:31:52;;;;;;;11.23;8.45;;;;;;;20.75;45.65;100007.03;5115027;28;20571;-45
2023/02/18 11:34:28;;;;;;;17.70;12.68;;;;;;;20.86;45.67;100008.84;5114991;28;20062;-45
2023/02/18 11:37:20;;;;;;;11.10;8.20;;;;;;;20.97;45.06;99998.38;5096536;28;20043;-45
2023/02/18 11:39:53;;;;;;;11.48;8.25;;;;;;;20.73;45.80;99996.56;5114918;28;20019;-45
2023/02/18 11:42:23;;;;;;;13.10;7.90;;;;;;;20.67;45.66;99989.50;5114762;28;20063;-45
2023/02/18 11:44:56;;;;;;;8.75;5.97;;;;;;;20.46;45.92;99990.88;5114930;28;20385;-45
2023/02/18 11:47:35;;;;;;;7.60;4.97;;;;;;;20.42;45.85;99980.91;5114659;28;20205;-45
2023/02/18 11:50:08;;;;;;;6.78;3.33;;;;;;;20.48;45.40;99980.00;5114287;28;20038;-45
2023/02/18 11:52:36;;;;;;;5.90;4.13;;;;;;;20.58;45.29;99974.88;5114599;28;20618;-45
2023/02/18 11:55:14;;;;;;;10.05;4.70;;;;;;;21.03;45.21;99963.56;5114538;28;20024;-45
2023/02/18 11:57:52;;;;;;;6.30;3.78;;;;;;;21.94;42.52;99960.88;5114547;28;20020;-45
2023/02/18 12:00:47;;;;;;;6.25;3.47;;;;;;;22.26;41.00;99946.94;5113066;28;20031;-45
2023/02/18 12:03:34;;;;;;;6.80;2.92;;;;;;;22.30;40.09;99948.06;5113103;28;20560;-45
2023/02/18 12:06:05;;;;;;;6.55;2.90;;;;;;;22.34;39.94;99943.84;5114444;28;20044;-45
2023/02/18 12:09:16;;;;;;;3.67;2.25;;;;;;;22.10;39.17;99942.41;5114287;28;20519;-45
2023/02/18 12:11:48;;;;;;;5.18;2.50;;;;;;;22.17;39.45;99942.22;5098930;28;20179;-45
2023/02/18 12:14:21;;;;;;;2.63;1.55;;;;;;;22.34;38.74;99941.16;5096007;28;20028;-45
2023/02/18 12:17:33;;;;;;;7.50;1.00;;;;;;;22.56;36.77;99936.88;5114117;28;20552;-45
2023/02/18 12:20:26;;;;;;;1.98;1.02;;;;;;;22.48;36.35;99935.47;5110132;28;20410;-45